Time;durP1;ratioP1;P1;durP2;ratioP2;P2;SDS_P1;SDS_P2;PMS_P1;PMS_P2;Temp;Humidity;BMP_temperature;BMP_pressure;BME280_temperature;BME280_humidity;BME280_pressure;Samples;Min_cycle;Max_cycle;Signal;HPM_P1;HPM_P2
2023/08/18 00:01:41;;;;;;;5.63;5.13;;;21.00;99.90;;;;;;5063861;28;20176;-66
2023/08/18 00:04:07;;;;;;;6.10;5.45;;;20.90;99.90;;;;;;5057971;28;20192;-66
2023/08/18 00:06:33;;;;;;;5.93;5.38;;;20.90;99.90;;;;;;5058476;28;20192;-66
2023/08/18 00:08:58;;;;;;;6.00;5.40;;;20.90;99.90;;;;;;5058269;28;20188;-66
2023/08/18 00:11:26;;;;;;;5.97;5.38;;;20.90;99.90;;;;;;5062187;28;20192;-66
2023/08/18 00:13:52;;;;;;;5.50;5.00;;;20.80;99.90;;;;;;5060068;28;20252;-66
2023/08/18 00:16:18;;;;;;;6.53;5.70;;;20.80;99.90;;;;;;5057281;28;20334;-66
2023/08/18 00:18:43;;;;;;;6.78;5.55;;;20.80;99.90;;;;;;5057296;28;20200;-66
2023/08/18 00:21:09;;;;;;;5.43;4.82;;;20.70;99.90;;;;;;5057634;28;20229;-66
2023/08/18 00:23:35;;;;;;;5.55;5.05;;;20.70;99.90;;;;;;5053489;28;20225;-66
2023/08/18 00:26:00;;;;;;;6.88;5.80;;;20.70;99.90;;;;;;5053859;28;20196;-66
2023/08/18 00:28:26;;;;;;;6.20;5.55;;;20.70;99.90;;;;;;5053906;28;20196;-66
2023/08/18 00:30:51;;;;;;;6.28;5.57;;;20.60;99.90;;;;;;5053899;28;20260;-66
2023/08/18 00:33:19;;;;;;;5.80;5.20;;;20.60;99.90;;;;;;5053709;28;20173;-66
2023/08/18 00:35:49;;;;;;;5.93;5.15;;;20.60;99.90;;;;;;5054062;28;20435;-66
2023/08/18 00:38:15;;;;;;;6.72;5.38;;;20.60;99.90;;;;;;5056076;28;20208;-66
2023/08/18 00:40:43;;;;;;;6.05;5.45;;;20.60;99.90;;;;;;5057926;28;20184;-66
2023/08/18 00:43:13;;;;;;;6.90;6.20;;;20.60;99.90;;;;;;5057285;28;20173;-66
2023/08/18 00:45:39;;;;;;;5.85;5.25;;;20.60;99.90;;;;;;5065173;28;20277;-66
2023/08/18 00:48:08;;;;;;;6.20;5.55;;;20.50;99.90;;;;;;5051100;28;20204;-66
2023/08/18 00:50:34;;;;;;;6.53;5.40;;;20.50;99.90;;;;;;5062641;28;20183;-65
2023/08/18 00:53:00;;;;;;;6.30;5.70;;;20.50;99.90;;;;;;5060548;28;20208;-65
2023/08/18 00:55:27;;;;;;;6.28;5.68;;;20.50;99.90;;;;;;5058852;28;20185;-66
2023/08/18 00:57:55;;;;;;;6.18;5.57;;;20.50;99.90;;;;;;5047941;28;20177;-66
2023/08/18 01:00:23;;;;;;;5.93;5.32;;;20.50;99.90;;;;;;5049079;28;20201;-66
2023/08/18 01:02:52;;;;;;;6.15;5.55;;;20.50;99.90;;;;;;5047740;28;20177;-66
2023/08/18 01:05:18;;;;;;;6.85;5.90;;;20.50;99.90;;;;;;5066257;28;20208;-66
2023/08/18 01:07:46;;;;;;;6.00;5.40;;;20.50;99.90;;;;;;5067834;28;20189;-65
2023/08/18 01:10:12;;;;;;;6.32;5.40;;;20.40;99.90;;;;;;5081864;28;20176;-66
2023/08/18 01:12:49;;;;;;;6.95;6.25;;;20.40;99.90;;;;;;5056527;28;20173;-66
2023/08/18 01:15:30;;;;;;;6.10;5.50;;;20.40;99.90;;;;;;5048097;28;20204;-67
2023/08/18 01:18:00;;;;;;;6.13;5.53;;;20.30;99.90;;;;;;5063342;28;20176;-67
2023/08/18 01:20:30;;;;;;;6.70;5.57;;;20.30;99.90;;;;;;5059810;28;20181;-66
2023/08/18 01:23:03;;;;;;;6.03;5.43;;;20.30;99.90;;;;;;5059432;28;20235;-66
2023/08/18 01:25:30;;;;;;;6.20;5.43;;;20.30;99.90;;;;;;5060169;28;20196;-66
2023/08/18 01:27:59;;;;;;;13.40;6.18;;;20.20;99.90;;;;;;5058296;28;20177;-66
2023/08/18 01:30:46;;;;;;;7.10;6.03;;;20.20;99.90;;;;;;5057164;28;20491;-66
2023/08/18 01:33:43;;;;;;;6.75;6.13;;;20.20;99.90;;;;;;5062929;28;20177;-66
2023/08/18 01:36:15;;;;;;;7.38;6.60;;;20.20;99.90;;;;;;5036081;28;20185;-67
2023/08/18 01:38:44;;;;;;;6.65;5.90;;;20.20;99.90;;;;;;5065937;28;20181;-66
2023/08/18 01:41:11;;;;;;;7.35;5.90;;;20.20;99.90;;;;;;5063621;28;20398;-66
2023/08/18 01:43:37;;;;;;;7.10;6.45;;;20.20;99.90;;;;;;5059496;28;20177;-66
2023/08/18 01:46:02;;;;;;;8.57;6.75;;;20.20;99.90;;;;;;5066773;28;20197;-66
2023/08/18 01:48:28;;;;;;;6.35;5.75;;;20.20;99.90;;;;;;5059840;28;20188;-66
2023/08/18 01:50:54;;;;;;;6.65;6.03;;;20.20;99.90;;;;;;5062839;28;20238;-65
2023/08/18 01:53:20;;;;;;;7.63;6.45;;;20.20;99.90;;;;;;5056633;28;20264;-66
2023/08/18 01:55:45;;;;;;;7.10;6.40;;;20.10;99.90;;;;;;5077475;28;20234;-66
2023/08/18 01:58:11;;;;;;;8.52;6.30;;;20.10;99.90;;;;;;5059417;28;20192;-67
2023/08/18 02:00:37;;;;;;;7.05;6.35;;;20.20;99.90;;;;;;5059679;28;20173;-66
2023/08/18 02:03:05;;;;;;;7.00;6.30;;;20.10;99.90;;;;;;5059111;28;20177;-66
2023/08/18 02:05:30;;;;;;;8.18;6.45;;;20.10;99.90;;;;;;5059221;28;20215;-66
2023/08/18 02:08:01;;;;;;;7.93;6.80;;;20.10;99.90;;;;;;5059285;28;20181;-66
2023/08/18 02:10:26;;;;;;;8.05;7.00;;;20.10;99.90;;;;;;5059296;28;20169;-66
2023/08/18 02:12:52;;;;;;;8.02;6.95;;;20.00;99.90;;;;;;5059196;28;20203;-65
2023/08/18 02:15:18;;;;;;;7.40;6.70;;;20.00;99.90;;;;;;5053428;28;20223;-67
2023/08/18 02:17:48;;;;;;;6.75;6.05;;;20.00;99.90;;;;;;5039593;28;20166;-66
2023/08/18 02:20:14;;;;;;;7.63;6.63;;;20.00;99.90;;;;;;5057035;28;20200;-66
2023/08/18 02:22:39;;;;;;;6.85;6.13;;;19.90;99.90;;;;;;5059171;28;20229;-66
2023/08/18 02:25:08;;;;;;;6.47;5.88;;;19.90;99.90;;;;;;5059205;28;20204;-66
2023/08/18 02:27:33;;;;;;;8.43;6.63;;;19.90;99.90;;;;;;5058829;28;20192;-68
2023/08/18 02:29:59;;;;;;;8.40;6.70;;;19.90;99.90;;;;;;5058802;28;20169;-66
2023/08/18 02:32:27;;;;;;;7.43;6.68;;;19.80;99.90;;;;;;5058595;28;20214;-66
2023/08/18 02:34:52;;;;;;;7.50;6.70;;;19.80;99.90;;;;;;5054732;28;20208;-66
2023/08/18 02:37:18;;;;;;;7.53;6.68;;;19.80;99.90;;;;;;5054231;28;20169;-68
2023/08/18 02:39:46;;;;;;;8.95;7.22;;;19.80;99.90;;;;;;5050558;28;20193;-66
2023/08/18 02:42:14;;;;;;;8.43;7.53;;;19.80;99.90;;;;;;5070598;28;20218;-66
2023/08/18 02:44:39;;;;;;;8.75;6.78;;;19.70;99.90;;;;;;5073304;28;20373;-66
2023/08/18 02:47:09;;;;;;;7.97;7.10;;;19.70;99.90;;;;;;5057727;28;20456;-68
2023/08/18 02:49:35;;;;;;;8.63;6.68;;;19.70;99.90;;;;;;5058843;28;20295;-66
2023/08/18 02:52:01;;;;;;;8.35;6.72;;;19.70;99.90;;;;;;5059383;28;20249;-66
2023/08/18 02:54:27;;;;;;;6.88;6.18;;;19.70;99.90;;;;;;5049833;28;20187;-66
2023/08/18 02:56:53;;;;;;;7.18;6.50;;;19.70;99.90;;;;;;5053028;28;20284;-66
2023/08/18 02:59:21;;;;;;;7.78;6.97;;;19.60;99.90;;;;;;5055732;28;20200;-66
2023/08/18 03:01:47;;;;;;;7.68;6.88;;;19.60;99.90;;;;;;5054366;28;20173;-66
2023/08/18 03:04:15;;;;;;;7.85;7.05;;;19.60;99.90;;;;;;5055032;28;20197;-66
2023/08/18 03:06:41;;;;;;;9.20;7.70;;;19.60;99.90;;;;;;5056369;28;20184;-67
2023/08/18 03:09:07;;;;;;;9.35;7.22;;;19.60;99.90;;;;;;5051716;28;20169;-65
2023/08/18 03:11:35;;;;;;;7.90;6.68;;;19.60;99.90;;;;;;5048857;28;21819;-66
2023/08/18 03:14:04;;;;;;;7.70;6.90;;;19.60;99.90;;;;;;5058734;28;20271;-66
2023/08/18 03:16:32;;;;;;;7.47;6.70;;;19.60;99.90;;;;;;5050629;28;20177;-66
2023/08/18 03:18:58;;;;;;;11.52;7.43;;;19.60;99.90;;;;;;5057923;28;20172;-66
2023/08/18 03:21:23;;;;;;;8.70;7.82;;;19.50;99.90;;;;;;5057658;28;20428;-66
2023/08/18 03:23:51;;;;;;;8.30;7.50;;;19.50;99.90;;;;;;5056981;28;20176;-66
2023/08/18 03:26:19;;;;;;;8.52;7.05;;;19.50;99.90;;;;;;5045200;28;20227;-66
2023/08/18 03:28:47;;;;;;;9.20;7.88;;;19.50;99.90;;;;;;5053322;28;20178;-66
2023/08/18 03:31:12;;;;;;;8.43;7.47;;;19.50;99.90;;;;;;5060837;28;20176;-67
2023/08/18 03:33:38;;;;;;;8.45;7.55;;;19.50;99.90;;;;;;5051213;28;20173;-66
2023/08/18 03:36:04;;;;;;;9.48;8.55;;;19.50;99.90;;;;;;5049235;28;20256;-66
2023/08/18 03:38:29;;;;;;;12.55;9.40;;;19.50;99.90;;;;;;5051046;28;20185;-66
2023/08/18 03:41:06;;;;;;;9.90;7.97;;;19.40;99.90;;;;;;5054068;28;20181;-66
2023/08/18 03:43:35;;;;;;;9.57;8.57;;;19.40;99.90;;;;;;5047911;28;20172;-66
2023/08/18 03:46:17;;;;;;;10.38;8.85;;;19.40;99.90;;;;;;5063932;28;20193;-66
2023/08/18 03:48:45;;;;;;;11.88;9.40;;;19.40;99.90;;;;;;5053633;28;20188;-66
2023/08/18 03:51:11;;;;;;;11.85;10.35;;;19.40;99.90;;;;;;5054580;28;20168;-66
2023/08/18 03:53:39;;;;;;;10.75;8.25;;;19.40;99.90;;;;;;5056989;28;20422;-66
2023/08/18 03:56:07;;;;;;;11.75;8.52;;;19.40;99.90;;;;;;5055492;28;20212;-66
2023/08/18 03:58:33;;;;;;;11.90;8.70;;;19.40;99.90;;;;;;5054839;28;20207;-65
2023/08/18 04:01:04;;;;;;;11.27;9.32;;;19.40;99.90;;;;;;5059671;28;20433;-67
2023/08/18 04:03:30;;;;;;;11.13;8.63;;;19.40;99.90;;;;;;5053864;28;20234;-66
2023/08/18 04:05:56;;;;;;;9.60;8.55;;;19.40;99.90;;;;;;5053656;28;20213;-67
2023/08/18 04:08:22;;;;;;;10.85;9.15;;;19.40;99.90;;;;;;5054000;28;20197;-66
2023/08/18 04:10:47;;;;;;;9.65;8.57;;;19.30;99.90;;;;;;5071497;28;20180;-66
2023/08/18 04:13:13;;;;;;;10.93;9.15;;;19.30;99.90;;;;;;5059059;28;20172;-67
2023/08/18 04:15:41;;;;;;;10.20;9.02;;;19.30;99.90;;;;;;5058929;28;20177;-68
2023/08/18 04:18:07;;;;;;;10.02;8.52;;;19.30;99.90;;;;;;5051574;28;20192;-66
2023/08/18 04:20:36;;;;;;;9.95;8.50;;;19.30;99.90;;;;;;5059489;28;20177;-67
2023/08/18 04:23:04;;;;;;;11.18;9.15;;;19.20;99.90;;;;;;5046217;28;20215;-66
2023/08/18 04:25:30;;;;;;;9.77;8.43;;;19.20;99.90;;;;;;5057825;28;20243;-66
2023/08/18 04:27:56;;;;;;;9.05;8.02;;;19.20;99.90;;;;;;5060416;28;20192;-66
2023/08/18 04:30:22;;;;;;;8.93;8.00;;;19.20;99.90;;;;;;5056189;28;20200;-66
2023/08/18 04:32:48;;;;;;;8.45;7.57;;;19.10;99.90;;;;;;5048363;28;20177;-66
2023/08/18 04:35:13;;;;;;;9.60;8.27;;;19.10;99.90;;;;;;5041137;28;20181;-65
2023/08/18 04:37:39;;;;;;;8.85;7.85;;;19.10;99.90;;;;;;5055981;28;20192;-66
2023/08/18 04:40:06;;;;;;;10.00;7.57;;;19.10;99.90;;;;;;5061046;28;20273;-68
2023/08/18 04:42:37;;;;;;;9.00;8.05;;;19.10;99.90;;;;;;5061178;28;20196;-67
2023/08/18 04:45:05;;;;;;;8.32;7.43;;;19.10;99.90;;;;;;5060049;28;20196;-67
2023/08/18 04:47:31;;;;;;;8.25;7.28;;;19.10;99.90;;;;;;5060400;28;20169;-66
2023/08/18 04:49:59;;;;;;;9.77;8.15;;;19.10;99.90;;;;;;5060838;28;20259;-65
2023/08/18 04:52:25;;;;;;;9.38;7.93;;;19.10;99.90;;;;;;5060753;28;20223;-65
2023/08/18 04:54:51;;;;;;;8.88;7.50;;;19.10;99.90;;;;;;5057203;28;20205;-68
2023/08/18 04:57:19;;;;;;;8.52;7.35;;;19.20;99.90;;;;;;5057373;28;20279;-66
2023/08/18 04:59:45;;;;;;;11.93;8.07;;;19.20;99.90;;;;;;5056127;28;20208;-68
2023/08/18 05:02:10;;;;;;;9.80;8.48;;;19.20;99.90;;;;;;5075326;28;20180;-67
2023/08/18 05:04:38;;;;;;;12.02;9.05;;;19.30;99.90;;;;;;5060570;28;20196;-66
2023/08/18 05:07:04;;;;;;;10.35;8.30;;;19.30;99.90;;;;;;5076959;28;20224;-66
2023/08/18 05:09:32;;;;;;;9.52;8.10;;;19.30;99.90;;;;;;5077018;28;20184;-66
2023/08/18 05:11:57;;;;;;;9.73;7.97;;;19.40;99.90;;;;;;5069809;28;20184;-66
2023/08/18 05:14:23;;;;;;;9.75;8.48;;;19.40;99.90;;;;;;5060406;28;20195;-66
2023/08/18 05:16:51;;;;;;;11.50;8.80;;;19.40;99.90;;;;;;5060236;28;20179;-66
2023/08/18 05:19:19;;;;;;;9.95;7.97;;;19.50;99.90;;;;;;5060202;28;20172;-66
2023/08/18 05:21:47;;;;;;;10.55;8.75;;;19.50;99.90;;;;;;5060395;28;20172;-66
2023/08/18 05:24:15;;;;;;;11.18;8.88;;;19.50;99.90;;;;;;5059135;28;20168;-66
2023/08/18 05:26:40;;;;;;;11.15;9.07;;;19.50;99.90;;;;;;5060023;28;20173;-66
2023/08/18 05:29:06;;;;;;;11.93;9.10;;;19.60;99.90;;;;;;5060189;28;20187;-66
2023/08/18 05:31:32;;;;;;;12.75;9.10;;;19.60;99.90;;;;;;5060013;28;20173;-66
2023/08/18 05:33:57;;;;;;;13.38;9.60;;;19.70;99.90;;;;;;5059566;28;20192;-66
2023/08/18 05:36:25;;;;;;;15.57;10.38;;;19.70;99.90;;;;;;5060013;28;20161;-66
2023/08/18 05:38:53;;;;;;;12.32;9.82;;;19.70;99.90;;;;;;5059872;28;20175;-66
2023/08/18 05:41:19;;;;;;;12.75;9.60;;;19.80;99.90;;;;;;5066511;28;20227;-65
2023/08/18 05:43:44;;;;;;;15.65;10.70;;;19.80;99.90;;;;;;5059789;28;20177;-65
2023/08/18 05:46:10;;;;;;;20.63;11.50;;;19.90;99.90;;;;;;5056011;28;20212;-66
2023/08/18 05:48:36;;;;;;;17.73;11.73;;;19.90;99.90;;;;;;5055876;28;20228;-65
2023/08/18 05:51:06;;;;;;;19.45;12.20;;;20.00;99.90;;;;;;5056036;28;20179;-65
2023/08/18 05:53:34;;;;;;;18.27;12.30;;;20.00;99.90;;;;;;5056046;28;20170;-65
2023/08/18 05:56:02;;;;;;;18.80;12.43;;;20.10;99.90;;;;;;5056000;28;20173;-65
2023/08/18 05:58:30;;;;;;;20.50;12.40;;;20.10;99.90;;;;;;5056286;28;20177;-65
2023/08/18 06:00:56;;;;;;;21.77;12.90;;;20.10;99.90;;;;;;5059531;28;20266;-65
2023/08/18 06:03:24;;;;;;;21.70;13.18;;;20.20;99.90;;;;;;5059183;28;20172;-65
2023/08/18 06:05:52;;;;;;;23.55;14.27;;;20.20;99.90;;;;;;5059086;28;20224;-65
2023/08/18 06:08:18;;;;;;;22.25;13.35;;;20.30;99.90;;;;;;5059065;28;20276;-65
2023/08/18 06:10:46;;;;;;;23.38;14.20;;;20.30;99.90;;;;;;5059262;28;20204;-66
2023/08/18 06:13:14;;;;;;;22.30;13.85;;;20.30;99.90;;;;;;5059130;28;20263;-66
2023/08/18 06:15:39;;;;;;;21.48;14.20;;;20.30;99.90;;;;;;5055472;28;20202;-66
2023/08/18 06:18:05;;;;;;;20.90;14.45;;;20.30;99.90;;;;;;5066524;28;20200;-66
2023/08/18 06:20:31;;;;;;;21.02;12.75;;;20.40;99.90;;;;;;5063919;28;20302;-66
2023/08/18 06:22:57;;;;;;;21.88;13.15;;;20.40;99.90;;;;;;5058911;28;20196;-66
2023/08/18 06:25:25;;;;;;;20.23;12.57;;;20.50;99.90;;;;;;5059073;28;20232;-67
2023/08/18 06:27:50;;;;;;;20.40;13.23;;;20.50;99.90;;;;;;5059118;28;20165;-66
2023/08/18 06:30:18;;;;;;;20.67;13.75;;;20.60;99.90;;;;;;5058959;28;20363;-66
2023/08/18 06:32:45;;;;;;;23.35;13.45;;;20.70;99.90;;;;;;5058624;28;20173;-66
2023/08/18 06:35:11;;;;;;;19.52;13.05;;;20.70;99.90;;;;;;5057921;28;20212;-66
2023/08/18 06:37:39;;;;;;;17.88;12.80;;;20.70;99.90;;;;;;5058353;28;20211;-65
2023/08/18 06:40:07;;;;;;;17.67;12.50;;;20.80;99.90;;;;;;5058573;28;20172;-66
2023/08/18 06:42:33;;;;;;;19.85;13.25;;;20.80;99.90;;;;;;5058597;28;20176;-66
2023/08/18 06:44:59;;;;;;;19.95;12.95;;;20.90;99.90;;;;;;5064746;28;20203;-66
2023/08/18 06:47:24;;;;;;;20.52;13.80;;;20.90;99.90;;;;;;5057538;28;20216;-66
2023/08/18 06:49:50;;;;;;;18.42;13.25;;;20.90;99.90;;;;;;5058421;28;20203;-64
2023/08/18 06:52:18;;;;;;;22.13;13.40;;;21.00;99.90;;;;;;5058423;28;20280;-64
2023/08/18 06:54:49;;;;;;;17.48;12.55;;;21.00;99.90;;;;;;5057909;28;20183;-66
2023/08/18 06:57:19;;;;;;;18.30;12.65;;;21.10;99.90;;;;;;5058473;28;20238;-66
2023/08/18 06:59:45;;;;;;;18.13;12.68;;;21.20;99.90;;;;;;5058421;28;20177;-64
2023/08/18 07:02:10;;;;;;;18.92;12.40;;;21.20;99.90;;;;;;5058178;28;20253;-65
2023/08/18 07:04:36;;;;;;;17.98;12.23;;;21.20;99.90;;;;;;5058002;28;20246;-66
2023/08/18 07:07:03;;;;;;;21.02;13.85;;;21.20;99.90;;;;;;5058140;28;20225;-65
2023/08/18 07:09:31;;;;;;;21.02;13.05;;;21.30;99.90;;;;;;5058046;28;20172;-65
2023/08/18 07:11:56;;;;;;;19.73;13.38;;;21.20;99.90;;;;;;5057867;28;20206;-65
2023/08/18 07:14:24;;;;;;;21.38;14.23;;;21.30;99.90;;;;;;5058117;28;20249;-65
2023/08/18 07:16:52;;;;;;;20.35;13.55;;;21.30;99.90;;;;;;5057886;28;20169;-65
2023/08/18 07:19:20;;;;;;;19.83;13.80;;;21.30;99.90;;;;;;5058108;28;20169;-66
2023/08/18 07:21:48;;;;;;;20.25;14.00;;;21.40;99.90;;;;;;5057552;28;20175;-66
2023/08/18 07:24:14;;;;;;;21.55;13.90;;;21.40;99.90;;;;;;5057812;28;20265;-65
2023/08/18 07:26:39;;;;;;;19.08;13.10;;;21.50;99.90;;;;;;5058008;28;20472;-66
2023/08/18 07:29:07;;;;;;;15.52;11.35;;;21.50;99.90;;;;;;5058009;28;20200;-66
2023/08/18 07:31:33;;;;;;;16.85;11.93;;;21.50;99.90;;;;;;5057636;28;20215;-65
2023/08/18 07:33:59;;;;;;;16.65;11.73;;;21.60;99.90;;;;;;5057631;28;20324;-65
2023/08/18 07:36:25;;;;;;;13.85;10.23;;;21.60;99.90;;;;;;5057863;28;20177;-66
2023/08/18 07:38:50;;;;;;;16.20;12.05;;;21.60;99.90;;;;;;5057186;28;20203;-65
2023/08/18 07:41:16;;;;;;;15.10;10.50;;;21.70;99.90;;;;;;5057324;28;20180;-65
2023/08/18 07:43:41;;;;;;;14.25;10.43;;;21.70;99.90;;;;;;5057670;28;20184;-66
2023/08/18 07:46:08;;;;;;;14.13;10.57;;;21.70;99.90;;;;;;5056846;28;20260;-66
2023/08/18 07:48:34;;;;;;;14.95;9.82;;;21.80;99.90;;;;;;5057089;28;20180;-66
2023/08/18 07:51:00;;;;;;;13.05;9.73;;;21.90;99.90;;;;;;5057588;28;20172;-65
2023/08/18 07:53:26;;;;;;;13.40;9.52;;;21.90;99.90;;;;;;5057508;28;20180;-65
2023/08/18 07:55:52;;;;;;;12.32;9.80;;;22.00;99.90;;;;;;5057598;28;20172;-65
2023/08/18 07:58:17;;;;;;;11.80;9.07;;;22.10;99.90;;;;;;5057000;28;20262;-65
2023/08/18 08:00:43;;;;;;;11.00;8.57;;;22.20;99.90;;;;;;5057263;28;20176;-65
2023/08/18 08:03:11;;;;;;;10.02;8.10;;;22.20;99.90;;;;;;5057426;28;20183;-66
2023/08/18 08:05:38;;;;;;;9.65;7.78;;;22.30;99.90;;;;;;5057107;28;20214;-66
2023/08/18 08:08:06;;;;;;;10.70;8.13;;;22.40;99.90;;;;;;5057464;28;20206;-65
2023/08/18 08:10:31;;;;;;;8.02;7.15;;;22.50;99.90;;;;;;5057569;28;20172;-66
2023/08/18 08:12:57;;;;;;;8.80;7.85;;;22.50;99.90;;;;;;5057210;28;20495;-66
2023/08/18 08:15:25;;;;;;;8.18;6.95;;;22.60;99.90;;;;;;5053609;28;20177;-66
2023/08/18 08:17:52;;;;;;;8.40;7.40;;;22.70;99.90;;;;;;5054099;28;20174;-66
2023/08/18 08:20:18;;;;;;;8.73;7.13;;;22.80;99.90;;;;;;5054897;28;20189;-65
2023/08/18 08:22:48;;;;;;;7.97;6.55;;;22.90;99.90;;;;;;5053925;28;20173;-66
2023/08/18 08:25:15;;;;;;;10.93;8.27;;;23.00;99.90;;;;;;5053712;28;20201;-65
2023/08/18 08:27:41;;;;;;;9.05;8.15;;;23.10;99.90;;;;;;5058134;28;20165;-66
2023/08/18 08:30:08;;;;;;;10.18;8.20;;;23.20;99.90;;;;;;5074191;28;20246;-65
2023/08/18 08:32:34;;;;;;;9.38;7.45;;;23.30;99.90;;;;;;5074113;28;20416;-66
2023/08/18 08:35:00;;;;;;;8.82;7.38;;;23.40;99.90;;;;;;5073986;28;20169;-65
2023/08/18 08:37:25;;;;;;;8.35;7.22;;;23.50;99.90;;;;;;5057235;28;20184;-66
2023/08/18 08:39:53;;;;;;;8.35;7.50;;;23.60;99.90;;;;;;5057203;28;20201;-66
2023/08/18 08:42:19;;;;;;;7.90;7.10;;;23.70;99.90;;;;;;5074568;28;20179;-67
2023/08/18 08:44:44;;;;;;;8.25;7.45;;;23.70;99.90;;;;;;5075459;28;20203;-66
2023/08/18 08:47:16;;;;;;;7.75;6.95;;;23.80;99.90;;;;;;5038171;28;20216;-66
2023/08/18 08:49:43;;;;;;;7.03;6.32;;;23.90;99.90;;;;;;5037440;28;20177;-66
2023/08/18 08:52:13;;;;;;;7.90;7.03;;;23.90;99.90;;;;;;5040895;28;20173;-66
2023/08/18 08:54:50;;;;;;;7.63;6.88;;;24.00;99.90;;;;;;5057162;28;20197;-66
2023/08/18 08:57:19;;;;;;;7.38;6.68;;;24.10;99.90;;;;;;5057162;28;20228;-65
2023/08/18 08:59:49;;;;;;;10.50;6.78;;;24.20;99.90;;;;;;5059918;28;20173;-66
2023/08/18 09:02:21;;;;;;;6.97;6.32;;;24.20;99.90;;;;;;5060775;28;20169;-66
2023/08/18 09:04:46;;;;;;;7.05;6.38;;;24.30;99.90;;;;;;5061045;28;20205;-66
2023/08/18 09:07:15;;;;;;;7.43;6.50;;;24.40;99.90;;;;;;5057280;28;20263;-65
2023/08/18 09:09:42;;;;;;;6.15;5.55;;;24.40;99.90;;;;;;5066051;28;20177;-66
2023/08/18 09:12:08;;;;;;;6.35;5.75;;;24.50;99.90;;;;;;5060348;28;20196;-66
2023/08/18 09:14:39;;;;;;;5.93;5.40;;;24.50;99.90;;;;;;5060265;28;20195;-65
2023/08/18 09:17:05;;;;;;;7.18;6.47;;;24.60;99.90;;;;;;5060166;28;20191;-66
2023/08/18 09:19:31;;;;;;;7.82;6.25;;;24.60;99.90;;;;;;5060126;28;20165;-66
2023/08/18 09:22:03;;;;;;;6.32;5.72;;;24.70;99.90;;;;;;5060167;28;20198;-66
2023/08/18 09:24:34;;;;;;;6.28;5.68;;;24.70;99.90;;;;;;5059872;28;20168;-66
2023/08/18 09:27:10;;;;;;;6.47;5.72;;;24.70;99.90;;;;;;5060263;28;20248;-66
2023/08/18 09:29:38;;;;;;;5.30;4.80;;;24.80;99.90;;;;;;5060481;28;20387;-66
2023/08/18 09:32:07;;;;;;;6.28;5.68;;;24.80;99.90;;;;;;5060105;28;20175;-65
2023/08/18 09:34:42;;;;;;;6.60;6.00;;;24.90;99.90;;;;;;5059603;28;20193;-66
2023/08/18 09:37:10;;;;;;;6.50;5.90;;;24.90;99.90;;;;;;5059831;28;20267;-66
2023/08/18 09:39:36;;;;;;;5.95;5.45;;;24.90;99.90;;;;;;5059673;28;20169;-66
2023/08/18 09:42:02;;;;;;;5.97;4.95;;;24.90;99.90;;;;;;5059746;28;20197;-66
2023/08/18 09:44:33;;;;;;;6.22;5.63;;;24.90;99.90;;;;;;5059636;28;20169;-65
2023/08/18 09:47:02;;;;;;;5.70;5.20;;;24.90;99.90;;;;;;5056275;28;20169;-65
2023/08/18 09:49:32;;;;;;;5.55;5.00;;;24.90;99.90;;;;;;5056282;28;20219;-65
2023/08/18 09:52:04;;;;;;;5.43;4.93;;;24.90;99.90;;;;;;5056198;28;20154;-65
2023/08/18 09:54:43;;;;;;;5.72;5.22;;;25.00;99.90;;;;;;5056238;28;20165;-65
2023/08/18 09:57:16;;;;;;;5.82;5.32;;;25.00;99.90;;;;;;5056610;28;20257;-65
2023/08/18 09:59:43;;;;;;;6.60;5.28;;;25.00;99.90;;;;;;5056461;28;20200;-65
2023/08/18 10:02:16;;;;;;;6.25;5.75;;;25.10;99.90;;;;;;5059374;28;20196;-65
2023/08/18 10:04:42;;;;;;;6.72;6.13;;;25.20;99.90;;;;;;5059420;28;20310;-64
2023/08/18 10:07:09;;;;;;;6.15;5.55;;;25.20;99.90;;;;;;5059385;28;20180;-65
2023/08/18 10:09:39;;;;;;;6.30;5.75;;;25.20;99.90;;;;;;5058898;28;20188;-66
2023/08/18 10:12:09;;;;;;;5.78;5.22;;;25.30;99.90;;;;;;5075935;28;20230;-66
2023/08/18 10:14:35;;;;;;;6.03;5.43;;;25.40;99.90;;;;;;5059452;28;20179;-66
2023/08/18 10:17:02;;;;;;;5.97;5.38;;;25.70;99.90;;;;;;5059078;28;20197;-65
2023/08/18 10:19:47;;;;;;;6.78;5.93;;;26.00;99.90;;;;;;5059135;28;20173;-65
2023/08/18 10:22:15;;;;;;;6.40;5.68;;;26.50;99.90;;;;;;5059120;28;20259;-65
2023/08/18 10:24:40;;;;;;;6.28;5.28;;;27.00;99.90;;;;;;5059140;28;20181;-63
2023/08/18 10:27:10;;;;;;;6.30;5.75;;;27.50;99.90;;;;;;5059023;28;20176;-65
2023/08/18 10:29:41;;;;;;;6.82;6.13;;;28.00;99.90;;;;;;5058760;28;20218;-65
2023/08/18 10:32:11;;;;;;;5.63;5.13;;;28.40;99.90;;;;;;5059330;28;20176;-65
2023/08/18 10:34:38;;;;;;;5.25;4.85;;;28.70;99.90;;;;;;5058718;28;20329;-66
2023/08/18 10:37:04;;;;;;;5.80;5.30;;;29.10;99.90;;;;;;5059003;28;20203;-65
2023/08/18 10:39:36;;;;;;;5.88;5.28;;;29.30;99.90;;;;;;5058677;28;20176;-64
2023/08/18 10:42:15;;;;;;;6.50;5.68;;;29.50;99.90;;;;;;5058979;28;20164;-65
2023/08/18 10:44:57;;;;;;;5.45;4.95;;;29.70;99.90;;;;;;5055595;28;20310;-64
2023/08/18 10:47:33;;;;;;;5.95;5.45;;;29.80;99.90;;;;;;5056595;28;20188;-64
2023/08/18 10:50:00;;;;;;;6.78;6.15;;;30.00;99.90;;;;;;5038376;28;20211;-65
2023/08/18 10:52:28;;;;;;;6.30;5.68;;;30.20;99.90;;;;;;5038616;28;20200;-65
2023/08/18 10:54:54;;;;;;;6.00;5.43;;;30.30;99.90;;;;;;5038564;28;20184;-65
2023/08/18 10:57:27;;;;;;;5.38;4.88;;;30.40;99.90;;;;;;5055650;28;20189;-65
2023/08/18 10:59:55;;;;;;;5.57;5.10;;;30.60;99.90;;;;;;5038708;28;20255;-65
2023/08/18 11:02:20;;;;;;;4.90;4.50;;;30.80;99.90;;;;;;5055044;28;20173;-66
2023/08/18 11:04:46;;;;;;;5.50;5.00;;;30.90;99.90;;;;;;5054508;28;20180;-66
2023/08/18 11:07:13;;;;;;;5.10;4.70;;;31.10;99.90;;;;;;5054964;28;20231;-65
2023/08/18 11:09:39;;;;;;;5.22;4.82;;;31.20;99.90;;;;;;5037940;28;20172;-65
2023/08/18 11:12:05;;;;;;;4.75;4.35;;;31.30;99.90;;;;;;5054715;28;20230;-66
2023/08/18 11:14:33;;;;;;;5.10;4.60;;;31.40;99.90;;;;;;5054870;28;20169;-65
2023/08/18 11:16:59;;;;;;;4.70;4.30;;;31.50;99.90;;;;;;5070988;28;20203;-64
2023/08/18 11:19:24;;;;;;;5.40;4.90;;;31.50;99.90;;;;;;5058107;28;20179;-65
2023/08/18 11:21:50;;;;;;;5.28;4.78;;;31.50;99.90;;;;;;5057665;28;20207;-64
2023/08/18 11:24:16;;;;;;;4.90;4.50;;;31.50;99.90;;;;;;5057982;28;20260;-64
2023/08/18 11:26:46;;;;;;;5.10;4.60;;;31.50;99.90;;;;;;5057419;28;20204;-66
2023/08/18 11:29:14;;;;;;;5.13;4.63;;;31.60;99.90;;;;;;5057858;28;20233;-65
2023/08/18 11:31:39;;;;;;;5.68;4.78;;;31.60;99.90;;;;;;5057815;28;20203;-64
2023/08/18 11:34:08;;;;;;;5.18;4.68;;;31.60;99.90;;;;;;5074272;28;20160;-65
2023/08/18 11:36:33;;;;;;;5.13;4.60;;;31.70;99.90;;;;;;5074535;28;20168;-64
2023/08/18 11:39:02;;;;;;;4.60;4.20;;;31.80;99.90;;;;;;5074267;28;20211;-64
2023/08/18 11:41:36;;;;;;;4.95;4.45;;;31.80;99.90;;;;;;5074311;28;20255;-65
2023/08/18 11:44:04;;;;;;;5.18;4.65;;;31.80;99.90;;;;;;5057830;28;20184;-65
2023/08/18 11:46:30;;;;;;;4.80;4.40;;;31.70;99.90;;;;;;5053789;28;20279;-65
2023/08/18 11:48:58;;;;;;;5.03;4.63;;;31.70;99.90;;;;;;5054278;28;20212;-65
2023/08/18 11:51:26;;;;;;;5.13;4.35;;;31.80;99.90;;;;;;5057515;28;20164;-64
2023/08/18 11:53:54;;;;;;;4.88;4.38;;;31.90;99.90;;;;;;5057380;28;20172;-65
2023/08/18 11:56:20;;;;;;;5.30;4.80;;;32.00;99.90;;;;;;5057512;28;20184;-64
2023/08/18 11:58:46;;;;;;;5.03;4.63;;;32.10;99.90;;;;;;5057055;28;20206;-65
2023/08/18 12:01:11;;;;;;;5.47;4.38;;;32.20;99.90;;;;;;5057416;28;20241;-65
2023/08/18 12:03:37;;;;;;;5.45;4.95;;;32.20;99.90;;;;;;5057592;28;20175;-66
2023/08/18 12:06:04;;;;;;;4.60;4.20;;;32.30;99.90;;;;;;5057242;28;20239;-65
2023/08/18 12:08:32;;;;;;;5.00;4.35;;;32.40;99.90;;;;;;5057525;28;20382;-65
2023/08/18 12:11:02;;;;;;;4.97;4.57;;;32.40;99.90;;;;;;5056988;28;20214;-65
2023/08/18 12:13:30;;;;;;;5.00;4.60;;;32.50;99.90;;;;;;5057365;28;20282;-66
2023/08/18 12:15:58;;;;;;;4.78;4.38;;;32.50;99.90;;;;;;5047950;28;20176;-67
2023/08/18 12:18:28;;;;;;;4.90;4.40;;;32.60;99.90;;;;;;5037263;28;20172;-65
2023/08/18 12:20:53;;;;;;;4.65;4.25;;;32.70;99.90;;;;;;5037476;28;20223;-65
2023/08/18 12:23:21;;;;;;;4.90;4.40;;;32.80;99.90;;;;;;5037194;28;20376;-65
2023/08/18 12:25:47;;;;;;;4.65;4.25;;;32.80;99.90;;;;;;5043027;28;20235;-65
2023/08/18 12:28:15;;;;;;;4.60;4.20;;;32.80;99.90;;;;;;5074689;28;20186;-65
2023/08/18 12:30:41;;;;;;;4.13;3.83;;;32.90;99.90;;;;;;5056377;28;20168;-65
2023/08/18 12:33:06;;;;;;;5.38;4.38;;;33.00;99.90;;;;;;5057356;28;20435;-66
2023/08/18 12:35:32;;;;;;;4.20;3.90;;;33.10;99.90;;;;;;5061264;28;20175;-66
2023/08/18 12:37:58;;;;;;;4.80;4.05;;;33.10;99.90;;;;;;5057879;28;20192;-65
2023/08/18 12:40:28;;;;;;;4.38;3.95;;;33.20;99.90;;;;;;5059298;28;20176;-65
2023/08/18 12:42:53;;;;;;;4.57;4.18;;;33.30;99.90;;;;;;5063337;28;20179;-65
2023/08/18 12:45:20;;;;;;;5.65;4.13;;;33.30;99.90;;;;;;5071951;28;20210;-66